Weather at Hacıpaşa helipad

Public forecast

Using degrees Celsius for public forecast. Weather courtesy of forecast.io.

Closest aviation weather report (METAR) to Hacıpaşa helipad

Closest report is Hatay Airport, 18.2 nm (33.7 km) NNW.

2024/05/29 19:50 (retrieved 52 minutes ago)

LTDA 291950Z 21012KT 9999 SCT040 21/17 Q1010 NOSIG

Closest aviation forecast (TAF) to Hacıpaşa helipad

Forecast is more than 12 hours old.

Closest forecast is Aleppo International Airport, 41.7 nm (77.2 km) E.

2024/05/29 06:00 (retrieved 15 hours ago)

TAF OSAP 290436Z 2906/3006 33018KT CAVOK TEMPO 2910/2916 30012KT 9999 SCT030